createdAt,value
2023-02-14T00:00:57.398Z,94.02
2023-02-14T00:03:24.413Z,93.72
2023-02-14T00:05:51.135Z,93.53
2023-02-14T00:08:18.186Z,93.32
2023-02-14T00:10:45.497Z,93.60
2023-02-14T00:13:13.743Z,93.68
2023-02-14T00:15:41.918Z,93.14
2023-02-14T00:18:08.730Z,93.85
2023-02-14T00:20:35.515Z,93.21
2023-02-14T00:23:02.373Z,92.70
2023-02-14T00:25:30.276Z,93.23
2023-02-14T00:27:57.317Z,93.22
2023-02-14T00:30:26.385Z,92.66
2023-02-14T00:32:54.629Z,92.76
2023-02-14T00:35:23.600Z,93.80
2023-02-14T00:37:50.580Z,93.53
2023-02-14T00:40:17.683Z,93.70
2023-02-14T00:42:47.303Z,93.47
2023-02-14T00:45:20.487Z,93.55
2023-02-14T00:47:47.304Z,93.69
2023-02-14T00:50:16.460Z,93.60
2023-02-14T00:52:43.327Z,93.80
2023-02-14T00:55:11.621Z,94.07
2023-02-14T00:57:38.622Z,94.23
2023-02-14T01:00:07.035Z,94.04
2023-02-14T01:02:34.045Z,93.98
2023-02-14T01:05:03.210Z,94.24
2023-02-14T01:07:31.456Z,94.01
2023-02-14T01:09:58.106Z,94.16
2023-02-14T01:12:24.856Z,94.80
2023-02-14T01:14:51.791Z,94.16
2023-02-14T01:17:18.544Z,94.59
2023-02-14T01:19:45.825Z,94.10
2023-02-14T01:22:12.638Z,94.78
2023-02-14T01:24:40.822Z,94.79
2023-02-14T01:27:07.543Z,94.73
2023-02-14T01:29:34.464Z,94.62
2023-02-14T01:32:01.421Z,94.75
2023-02-14T01:34:28.260Z,95.33
2023-02-14T01:36:55.298Z,95.59
2023-02-14T01:39:22.071Z,95.17
2023-02-14T01:41:50.187Z,95.40
2023-02-14T01:44:55.557Z,95.29
2023-02-14T01:47:22.882Z,95.92
2023-02-14T01:49:55.052Z,95.43
2023-02-14T01:52:26.348Z,95.70
2023-02-14T01:54:55.191Z,96.66
2023-02-14T01:57:28.481Z,96.09
2023-02-14T01:59:59.612Z,95.60
2023-02-14T02:02:26.618Z,95.92
2023-02-14T02:04:56.006Z,95.93
2023-02-14T02:07:26.510Z,95.91
2023-02-14T02:09:56.613Z,96.33
2023-02-14T02:12:25.035Z,96.25
2023-02-14T02:14:55.272Z,96.70
2023-02-14T02:17:33.601Z,96.20
2023-02-14T02:20:34.359Z,97.03
2023-02-14T02:23:41.774Z,96.27
2023-02-14T02:26:52.322Z,96.68
2023-02-14T02:29:58.653Z,97.07
2023-02-14T02:32:59.616Z,96.27
2023-02-14T02:35:50.221Z,96.65
2023-02-14T02:38:35.465Z,97.15
2023-02-14T02:41:11.850Z,96.43
2023-02-14T02:43:44.665Z,96.84
2023-02-14T02:46:21.522Z,97.08
2023-02-14T02:48:57.767Z,96.94
2023-02-14T02:51:33.721Z,97.35
2023-02-14T02:54:08.919Z,97.72
2023-02-14T02:56:43.651Z,97.50
2023-02-14T02:59:17.999Z,97.52
2023-02-14T03:02:01.814Z,97.37
2023-02-14T03:04:31.120Z,97.37
2023-02-14T03:07:00.259Z,97.89
2023-02-14T03:09:50.577Z,97.60
2023-02-14T03:12:28.790Z,97.59
2023-02-14T03:15:02.507Z,98.22
2023-02-14T03:17:36.397Z,98.46
2023-02-14T03:20:18.855Z,98.36
2023-02-14T03:22:55.467Z,97.99
2023-02-14T03:25:42.334Z,99.19
2023-02-14T03:28:16.040Z,98.75
2023-02-14T03:30:54.035Z,98.38
2023-02-14T03:33:29.092Z,98.77
2023-02-14T03:36:01.583Z,98.59
2023-02-14T03:38:34.709Z,98.70
2023-02-14T03:41:06.901Z,98.53
2023-02-14T03:43:37.705Z,99.27
2023-02-14T03:46:10.329Z,98.26
2023-02-14T03:48:39.901Z,98.57
2023-02-14T03:51:13.051Z,98.63
2023-02-14T03:53:45.018Z,98.76
2023-02-14T03:56:16.144Z,98.70
2023-02-14T03:58:46.607Z,98.65
2023-02-14T04:01:17.091Z,98.80
2023-02-14T04:03:45.350Z,99.08
2023-02-14T04:06:12.395Z,98.59
2023-02-14T04:08:39.343Z,98.73
2023-02-14T04:11:07.818Z,98.68
2023-02-14T04:13:35.547Z,98.32
2023-02-14T04:16:02.774Z,98.47
2023-02-14T04:18:31.435Z,98.87
2023-02-14T04:20:58.822Z,98.55
2023-02-14T04:23:26.186Z,98.81
2023-02-14T04:25:52.904Z,98.82
2023-02-14T04:28:21.253Z,98.70
2023-02-14T04:30:48.528Z,98.79
2023-02-14T04:33:16.298Z,98.82
2023-02-14T04:35:43.397Z,98.73
2023-02-14T04:38:12.550Z,98.34
2023-02-14T04:40:39.460Z,98.35
2023-02-14T04:43:06.455Z,98.28
2023-02-14T04:45:34.785Z,98.49
2023-02-14T04:48:01.908Z,98.27
2023-02-14T04:50:28.655Z,98.08
2023-02-14T04:52:56.856Z,98.93
2023-02-14T04:55:23.905Z,98.76
2023-02-14T04:57:50.628Z,98.84
2023-02-14T05:00:19.476Z,98.65
2023-02-14T05:02:47.878Z,98.70
2023-02-14T05:05:15.876Z,98.51
2023-02-14T05:07:43.397Z,98.59
2023-02-14T05:10:11.084Z,98.39
2023-02-14T05:12:38.134Z,98.48
2023-02-14T05:15:05.294Z,98.25
2023-02-14T05:17:32.398Z,98.60
2023-02-14T05:20:00.819Z,98.68
2023-02-14T05:22:27.626Z,99.26
2023-02-14T05:24:54.360Z,98.87
2023-02-14T05:27:21.103Z,98.73
2023-02-14T05:29:47.909Z,99.29
2023-02-14T05:32:14.759Z,98.92
2023-02-14T05:34:41.479Z,99.20
2023-02-14T05:37:10.129Z,99.57
2023-02-14T05:39:37.011Z,99.58
2023-02-14T05:42:04.643Z,99.27
2023-02-14T05:44:31.425Z,99.45
2023-02-14T05:46:58.231Z,99.56
2023-02-14T05:49:25.599Z,99.60
2023-02-14T05:51:52.425Z,99.84
2023-02-14T05:54:23.497Z,99.23
2023-02-14T05:56:50.384Z,100.00
2023-02-14T05:59:19.490Z,99.92
2023-02-14T06:01:49.722Z,99.63
2023-02-14T06:04:17.120Z,99.79
2023-02-14T06:06:44.969Z,99.88
2023-02-14T06:09:12.074Z,99.83
2023-02-14T06:11:43.163Z,99.75
2023-02-14T06:14:10.347Z,99.88
2023-02-14T06:16:43.479Z,99.45
2023-02-14T06:21:54.492Z,99.91
2023-02-14T06:24:21.722Z,99.26
2023-02-14T06:26:51.226Z,100.00
2023-02-14T06:29:18.678Z,99.42
2023-02-14T06:31:46.947Z,100.00
2023-02-14T06:34:16.881Z,99.83
2023-02-14T06:36:43.904Z,99.75
2023-02-14T06:39:11.365Z,100.00
2023-02-14T06:41:38.153Z,99.54
2023-02-14T06:44:06.488Z,100.00
2023-02-14T06:46:33.532Z,99.94
2023-02-14T06:49:00.571Z,99.81
2023-02-14T06:51:27.471Z,99.60
2023-02-14T06:53:54.780Z,99.77
2023-02-14T06:56:23.002Z,99.69
2023-02-14T06:58:50.112Z,99.43
2023-02-14T07:01:24.532Z,100.00
2023-02-14T07:06:58.482Z,100.00
2023-02-14T07:09:25.520Z,99.79
2023-02-14T07:12:06.967Z,99.94
2023-02-14T07:14:33.836Z,100.00
2023-02-14T07:17:07.797Z,99.71
2023-02-14T07:19:37.360Z,99.76
2023-02-14T07:22:04.356Z,100.00
2023-02-14T07:24:31.369Z,99.99
2023-02-14T07:26:58.521Z,100.00
2023-02-14T07:29:25.316Z,99.83
2023-02-14T07:31:52.491Z,99.35
2023-02-14T07:34:22.276Z,99.57
2023-02-14T07:36:49.407Z,99.87
2023-02-14T07:39:16.172Z,99.96
2023-02-14T07:41:42.949Z,99.61
2023-02-14T07:44:09.940Z,99.53
2023-02-14T07:46:36.846Z,99.77
2023-02-14T07:49:03.766Z,99.99
2023-02-14T07:51:32.149Z,100.00
2023-02-14T07:53:59.182Z,99.92
2023-02-14T07:56:26.170Z,100.00
2023-02-14T07:58:53.158Z,100.00
2023-02-14T08:01:20.029Z,100.00
2023-02-14T08:03:47.104Z,100.00
2023-02-14T08:06:14.943Z,100.00
2023-02-14T08:08:43.644Z,100.00
2023-02-14T08:11:10.673Z,99.81
2023-02-14T08:13:37.586Z,100.00
2023-02-14T08:16:04.892Z,99.78
2023-02-14T08:18:34.890Z,100.00
2023-02-14T08:21:03.079Z,99.93
2023-02-14T08:23:32.527Z,99.98
2023-02-14T08:26:01.392Z,100.00
2023-02-14T08:28:29.007Z,100.00
2023-02-14T08:30:56.113Z,99.98
2023-02-14T08:33:23.225Z,100.00
2023-02-14T08:35:51.331Z,100.00
2023-02-14T08:38:18.291Z,100.00
2023-02-14T08:59:29.852Z,100.00
2023-02-14T09:01:56.770Z,100.00
2023-02-14T09:04:23.801Z,100.00
2023-02-14T09:06:50.713Z,100.00
2023-02-14T09:09:17.448Z,100.00
2023-02-14T09:11:44.268Z,100.00
2023-02-14T09:14:11.141Z,100.00
2023-02-14T09:16:40.635Z,100.00
2023-02-14T09:19:07.433Z,100.00
2023-02-14T09:21:34.205Z,100.00
2023-02-14T09:24:00.920Z,100.00
2023-02-14T09:26:27.686Z,100.00
2023-02-14T09:28:54.545Z,100.00
2023-02-14T09:31:23.866Z,100.00
2023-02-14T09:33:52.504Z,100.00
2023-02-14T09:36:19.330Z,100.00
2023-02-14T09:38:46.164Z,100.00
2023-02-14T09:41:32.840Z,100.00
2023-02-14T09:44:02.476Z,100.00
2023-02-14T09:46:31.289Z,100.00
2023-02-14T09:49:03.219Z,100.00
2023-02-14T09:51:32.051Z,100.00
2023-02-14T09:54:02.600Z,100.00
2023-02-14T09:56:50.415Z,100.00
2023-02-14T09:59:24.350Z,100.00
2023-02-14T10:01:57.896Z,100.00
2023-02-14T10:04:32.233Z,100.00
2023-02-14T10:07:06.485Z,100.00
2023-02-14T10:09:50.752Z,100.00
2023-02-14T10:12:26.662Z,100.00
2023-02-14T10:14:55.068Z,100.00
2023-02-14T10:17:29.017Z,100.00
2023-02-14T10:20:02.772Z,100.00
2023-02-14T10:22:39.711Z,100.00
2023-02-14T10:25:16.497Z,100.00
2023-02-14T10:27:47.076Z,100.00
2023-02-14T10:30:16.432Z,100.00
2023-02-14T10:32:47.903Z,100.00
2023-02-14T10:35:31.329Z,100.00
2023-02-14T10:38:07.444Z,100.00
2023-02-14T10:40:46.672Z,100.00
2023-02-14T10:43:23.373Z,100.00
2023-02-14T10:46:02.142Z,100.00
2023-02-14T10:48:48.174Z,100.00
2023-02-14T10:51:21.601Z,100.00
2023-02-14T10:53:57.836Z,100.00
2023-02-14T10:56:32.482Z,100.00
2023-02-14T10:59:02.768Z,100.00
2023-02-14T11:01:29.699Z,100.00
2023-02-14T11:04:00.276Z,100.00
2023-02-14T11:06:28.968Z,100.00
2023-02-14T11:08:58.635Z,100.00
2023-02-14T11:11:31.139Z,100.00
2023-02-14T11:13:58.034Z,100.00
2023-02-14T11:16:33.861Z,100.00
2023-02-14T11:19:19.142Z,100.00
2023-02-14T11:21:50.439Z,100.00
2023-02-14T11:24:19.485Z,100.00
2023-02-14T11:26:48.746Z,100.00
2023-02-14T11:29:26.135Z,100.00
2023-02-14T11:31:53.151Z,100.00
2023-02-14T11:34:29.983Z,100.00
2023-02-14T11:36:58.468Z,100.00
2023-02-14T11:39:30.251Z,100.00
2023-02-14T11:41:59.168Z,100.00
2023-02-14T11:44:27.870Z,100.00
2023-02-14T11:46:59.642Z,100.00
2023-02-14T11:49:29.871Z,100.00
2023-02-14T11:52:00.837Z,100.00
2023-02-14T11:54:35.251Z,100.00
2023-02-14T11:57:07.620Z,100.00
2023-02-14T11:59:39.388Z,100.00
2023-02-14T12:02:21.995Z,100.00
2023-02-14T12:04:51.043Z,100.00
2023-02-14T12:07:22.889Z,100.00
2023-02-14T12:10:08.528Z,98.22
2023-02-14T12:12:35.860Z,99.30
2023-02-14T12:15:32.137Z,98.13
2023-02-14T12:18:26.272Z,97.55
2023-02-14T12:21:23.473Z,97.70
2023-02-14T12:24:02.641Z,95.83
2023-02-14T12:26:33.459Z,96.91
2023-02-14T12:29:10.320Z,96.32
2023-02-14T12:31:37.581Z,96.89
2023-02-14T12:34:07.718Z,94.81
2023-02-14T12:37:02.859Z,92.87
2023-02-14T12:39:40.050Z,91.06
2023-02-14T12:42:19.289Z,88.69
2023-02-14T12:44:58.687Z,87.28
2023-02-14T12:47:36.401Z,85.59
2023-02-14T12:50:27.803Z,85.39
2023-02-14T12:53:31.253Z,85.06
2023-02-14T12:56:08.711Z,84.39
2023-02-14T12:58:45.181Z,82.98
2023-02-14T13:01:38.340Z,82.99
2023-02-14T13:04:33.037Z,80.18
2023-02-14T13:07:06.791Z,83.24
2023-02-14T13:09:40.548Z,81.38
2023-02-14T13:12:24.452Z,80.43
2023-02-14T13:15:04.929Z,78.72
2023-02-14T13:17:38.090Z,77.78
2023-02-14T13:20:25.210Z,77.55
2023-02-14T13:22:54.955Z,76.15
2023-02-14T13:25:27.183Z,74.52
2023-02-14T13:28:02.396Z,74.43
2023-02-14T13:30:32.282Z,73.41
2023-02-14T13:33:06.614Z,71.87
2023-02-14T13:35:36.848Z,71.40
2023-02-14T13:38:12.580Z,71.18
2023-02-14T13:40:42.697Z,70.29
2023-02-14T13:43:10.981Z,69.82
2023-02-14T13:45:58.808Z,64.63
2023-02-14T13:48:28.544Z,68.17
2023-02-14T13:50:58.523Z,68.10
2023-02-14T13:53:41.954Z,65.95
2023-02-14T13:56:33.868Z,66.95
2023-02-14T14:02:47.057Z,64.26
2023-02-14T14:05:50.218Z,63.29
2023-02-14T14:08:42.120Z,60.26
2023-02-14T14:15:30.548Z,61.24
2023-02-14T14:19:04.508Z,61.95
2023-02-14T14:22:09.993Z,59.65
2023-02-14T14:42:18.845Z,60.53
2023-02-14T14:44:51.893Z,60.29
2023-02-14T14:47:33.091Z,59.43
2023-02-14T14:50:46.016Z,59.97
2023-02-14T14:56:47.971Z,58.82
2023-02-14T14:59:45.537Z,58.66
2023-02-14T15:02:27.634Z,57.54
2023-02-14T15:05:19.191Z,57.83
2023-02-14T15:08:25.338Z,58.25
2023-02-14T15:11:08.029Z,58.53
2023-02-14T15:14:12.380Z,59.08
2023-02-14T15:16:46.095Z,59.67
2023-02-14T15:19:21.230Z,60.40
2023-02-14T15:21:48.268Z,61.19
2023-02-14T15:24:18.969Z,61.36
2023-02-14T15:26:50.156Z,61.47
2023-02-14T15:29:24.781Z,61.42
2023-02-14T15:31:57.670Z,61.63
2023-02-14T15:34:29.695Z,61.38
2023-02-14T15:36:58.511Z,61.28
2023-02-14T15:39:35.127Z,60.91
2023-02-14T15:42:05.145Z,60.66
2023-02-14T15:44:33.705Z,60.04
2023-02-14T15:47:03.986Z,59.85
2023-02-14T15:49:35.576Z,59.72
2023-02-14T15:52:04.677Z,59.73
2023-02-14T15:54:37.366Z,60.28
2023-02-14T15:57:07.887Z,61.25
2023-02-14T15:59:36.323Z,61.64
2023-02-14T16:02:15.486Z,62.29
2023-02-14T16:04:51.583Z,63.14
2023-02-14T16:07:41.087Z,63.90
2023-02-14T16:10:21.602Z,64.48
2023-02-14T16:12:59.186Z,65.13
2023-02-14T16:15:30.987Z,65.83
2023-02-14T16:17:59.548Z,66.20
2023-02-14T16:20:43.613Z,65.96
2023-02-14T16:23:26.264Z,66.50
2023-02-14T16:25:53.992Z,67.37
2023-02-14T16:28:22.320Z,67.00
2023-02-14T16:30:57.253Z,67.68
2023-02-14T16:33:27.151Z,67.97
2023-02-14T16:35:56.352Z,67.64
2023-02-14T16:38:24.102Z,68.09
2023-02-14T16:40:53.389Z,68.18
2023-02-14T16:43:22.505Z,68.64
2023-02-14T16:45:49.624Z,68.52
2023-02-14T16:48:18.787Z,69.14
2023-02-14T16:50:46.440Z,69.39
2023-02-14T16:53:23.847Z,69.77
2023-02-14T16:55:53.194Z,70.11
2023-02-14T16:58:24.167Z,70.46
2023-02-14T17:00:51.418Z,70.08
2023-02-14T17:03:18.386Z,70.56
2023-02-14T17:05:45.864Z,70.82
2023-02-14T17:08:14.268Z,71.09
2023-02-14T17:10:43.421Z,71.59
2023-02-14T17:13:12.201Z,71.66
2023-02-14T17:15:43.249Z,71.79
2023-02-14T17:18:15.400Z,71.76
2023-02-14T17:20:42.823Z,72.21
2023-02-14T17:23:09.687Z,72.42
2023-02-14T17:25:39.137Z,72.88
2023-02-14T17:28:06.348Z,73.25
2023-02-14T17:30:33.229Z,73.32
2023-02-14T17:33:03.308Z,74.06
2023-02-14T17:35:30.188Z,74.14
2023-02-14T17:37:59.533Z,74.34
2023-02-14T17:40:27.330Z,74.52
2023-02-14T17:42:54.473Z,74.67
2023-02-14T17:45:23.144Z,74.63
2023-02-14T17:47:50.213Z,75.18
2023-02-14T17:50:18.859Z,74.85
2023-02-14T17:52:45.710Z,75.01
2023-02-14T17:55:13.273Z,75.25
2023-02-14T17:57:42.408Z,75.55
2023-02-14T18:00:12.174Z,75.63
2023-02-14T18:02:40.261Z,75.86
2023-02-14T18:05:10.057Z,76.38
2023-02-14T18:07:41.746Z,76.52
2023-02-14T18:10:09.937Z,77.22
2023-02-14T18:12:36.839Z,76.66
2023-02-14T18:15:04.128Z,77.21
2023-02-14T18:17:31.248Z,77.60
2023-02-14T18:19:59.409Z,77.53
2023-02-14T18:22:26.946Z,78.27
2023-02-14T18:24:55.665Z,78.08
2023-02-14T18:27:22.634Z,78.04
2023-02-14T18:29:50.166Z,78.13
2023-02-14T18:32:19.253Z,78.46
2023-02-14T18:34:46.125Z,78.56
2023-02-14T18:37:16.861Z,79.11
2023-02-14T18:39:45.211Z,79.18
2023-02-14T18:42:18.066Z,79.00
2023-02-14T18:44:46.746Z,79.89
2023-02-14T18:47:15.900Z,79.83
2023-02-14T18:49:42.836Z,79.85
2023-02-14T18:52:13.606Z,79.64
2023-02-14T18:54:40.523Z,80.22
2023-02-14T18:57:07.304Z,80.16
2023-02-14T18:59:39.323Z,80.27
2023-02-14T19:02:09.157Z,80.25
2023-02-14T19:04:36.679Z,80.26
2023-02-14T19:07:05.223Z,80.17
2023-02-14T19:09:32.331Z,80.65
2023-02-14T19:11:59.733Z,80.35
2023-02-14T19:14:26.504Z,81.14
2023-02-14T19:16:55.724Z,81.20
2023-02-14T19:19:23.156Z,80.91
2023-02-14T19:21:53.942Z,80.86
2023-02-14T19:24:21.569Z,81.15
2023-02-14T19:26:51.277Z,81.08
2023-02-14T19:29:20.200Z,81.73
2023-02-14T19:31:49.957Z,81.50
2023-02-14T19:34:20.548Z,81.61
2023-02-14T19:36:48.079Z,81.23
2023-02-14T19:39:16.031Z,80.87
2023-02-14T19:41:43.668Z,81.25
2023-02-14T19:44:12.556Z,80.84
2023-02-14T19:46:40.468Z,81.28
2023-02-14T19:49:07.525Z,81.45
2023-02-14T19:51:37.244Z,81.52
2023-02-14T19:54:07.246Z,81.79
2023-02-14T19:56:35.676Z,81.17
2023-02-14T19:59:07.889Z,81.60
2023-02-14T20:01:37.001Z,82.04
2023-02-14T20:04:05.594Z,82.59
2023-02-14T20:06:32.706Z,82.20
2023-02-14T20:09:01.411Z,82.87
2023-02-14T20:11:34.513Z,82.32
2023-02-14T20:14:02.448Z,82.63
2023-02-14T20:16:35.376Z,82.24
2023-02-14T20:19:03.034Z,82.11
2023-02-14T20:21:30.091Z,82.06
2023-02-14T20:23:58.229Z,82.94
2023-02-14T20:26:27.596Z,82.64
2023-02-14T20:28:57.571Z,82.62
2023-02-14T20:31:24.813Z,82.86
2023-02-14T20:33:51.816Z,82.66
2023-02-14T20:38:46.306Z,82.85
2023-02-14T20:41:14.596Z,83.25
2023-02-14T20:43:44.065Z,82.62
2023-02-14T20:46:10.941Z,83.02
2023-02-14T20:48:37.844Z,82.76
2023-02-14T20:51:11.609Z,83.27
2023-02-14T20:53:41.508Z,83.27
2023-02-14T20:56:08.892Z,83.50
2023-02-14T20:58:37.644Z,83.09
2023-02-14T21:01:10.428Z,83.91
2023-02-14T21:03:37.434Z,83.51
2023-02-14T21:06:05.773Z,83.59
2023-02-14T21:08:33.654Z,83.82
2023-02-14T21:11:03.580Z,83.48
2023-02-14T21:20:26.050Z,84.24
2023-02-14T21:23:29.332Z,84.06
2023-02-14T21:33:09.540Z,84.52
2023-02-14T21:35:38.390Z,83.95
2023-02-14T21:38:07.689Z,84.16
2023-02-14T21:40:35.001Z,84.16
2023-02-14T21:43:14.382Z,84.40
2023-02-14T21:45:50.113Z,84.49
2023-02-14T21:48:17.061Z,84.15
2023-02-14T21:50:43.773Z,84.50
2023-02-14T21:53:10.652Z,84.71
2023-02-14T21:55:37.509Z,84.43
2023-02-14T21:58:06.049Z,83.96
2023-02-14T22:00:33.011Z,84.30
2023-02-14T22:02:59.965Z,84.49
2023-02-14T22:05:29.443Z,83.94
2023-02-14T22:07:57.519Z,84.51
2023-02-14T22:10:25.364Z,84.97
2023-02-14T22:13:02.374Z,84.48
2023-02-14T22:15:30.920Z,84.56
2023-02-14T22:18:00.149Z,84.47
2023-02-14T22:20:29.025Z,84.55
2023-02-14T22:22:55.789Z,84.61
2023-02-14T22:25:22.510Z,84.06
2023-02-14T22:27:49.291Z,84.26
2023-02-14T22:30:16.482Z,84.69
2023-02-14T22:32:44.829Z,85.06
2023-02-14T22:35:14.916Z,85.00
2023-02-14T22:37:41.786Z,84.94
2023-02-14T22:40:09.469Z,85.58
2023-02-14T22:42:38.999Z,85.46
2023-02-14T22:45:06.533Z,85.45
2023-02-14T22:47:33.446Z,85.69
2023-02-14T22:50:05.189Z,86.26
2023-02-14T22:52:34.983Z,86.37
2023-02-14T22:55:04.801Z,86.33
2023-02-14T22:57:34.629Z,86.07
2023-02-14T23:00:11.873Z,85.31
2023-02-14T23:02:39.136Z,86.04
2023-02-14T23:05:08.017Z,86.40
2023-02-14T23:07:34.847Z,85.89
2023-02-14T23:10:01.615Z,86.38
2023-02-14T23:12:28.425Z,86.10
2023-02-14T23:14:55.209Z,86.23
2023-02-14T23:17:22.287Z,86.46
2023-02-14T23:19:49.063Z,86.33
2023-02-14T23:22:22.674Z,86.94
2023-02-14T23:24:51.168Z,87.02
2023-02-14T23:27:20.515Z,86.41
2023-02-14T23:29:47.420Z,87.02
2023-02-14T23:32:14.808Z,87.43
2023-02-14T23:34:43.163Z,87.95
2023-02-14T23:37:11.409Z,87.75
2023-02-14T23:39:40.129Z,87.90
2023-02-14T23:42:08.865Z,87.85
2023-02-14T23:44:36.130Z,87.77
2023-02-14T23:47:05.158Z,87.93
2023-02-14T23:49:33.498Z,87.73
2023-02-14T23:52:02.070Z,88.07
2023-02-14T23:54:29.075Z,88.08
2023-02-14T23:56:57.551Z,88.19
2023-02-14T23:59:24.883Z,87.98
